Time;durP1;ratioP1;P1;durP2;ratioP2;P2;SDS_P1;SDS_P2;PMS_P1;PMS_P2;Temp;Humidity;BMP_temperature;BMP_pressure;BME280_temperature;BME280_humidity;BME280_pressure;Samples;Min_cycle;Max_cycle;Signal;HPM_P1;HPM_P2
2022/08/26 06:09:29;;;;;;;8.05;1.30;;;22.40;75.50;;;;;;6218312;23;20021;-77
2022/08/26 06:11:57;;;;;;;6.78;0.90;;;22.40;75.50;;;;;;6192345;23;20417;-78
2022/08/26 06:14:24;;;;;;;7.00;1.17;;;22.40;75.70;;;;;;6219275;23;20286;-78
2022/08/26 06:16:52;;;;;;;6.47;0.90;;;22.30;75.80;;;;;;6218302;23;20439;-79
2022/08/26 06:19:20;;;;;;;6.63;0.93;;;22.40;75.80;;;;;;6218720;23;20104;-79
2022/08/26 06:21:53;;;;;;;9.02;1.02;;;22.40;75.80;;;;;;6192838;23;20024;-80
2022/08/26 06:27:13;;;;;;;11.60;1.08;;;22.40;75.60;;;;;;6218229;23;20445;-80
2022/08/26 06:29:39;;;;;;;7.50;0.90;;;22.40;75.70;;;;;;6191942;23;20031;-79
2022/08/26 06:32:05;;;;;;;13.82;1.65;;;22.50;75.80;;;;;;6218266;23;20005;-77
2022/08/26 06:34:32;;;;;;;10.82;1.55;;;22.50;75.80;;;;;;6218235;23;20008;-78
2022/08/26 06:37:01;;;;;;;11.05;1.35;;;22.50;75.60;;;;;;6218236;23;20017;-73
2022/08/26 06:39:28;;;;;;;8.55;1.10;;;22.50;75.40;;;;;;6218273;23;20028;-78
2022/08/26 06:41:54;;;;;;;9.15;1.00;;;22.50;75.10;;;;;;6191411;23;20460;-78
2022/08/26 06:44:20;;;;;;;5.70;1.30;;;22.50;74.60;;;;;;6217125;23;20021;-78
2022/08/26 06:46:46;;;;;;;9.55;1.17;;;22.50;75.00;;;;;;6192454;23;20091;-77
2022/08/26 06:49:12;;;;;;;7.22;1.30;;;22.50;74.90;;;;;;6191645;23;20020;-77
2022/08/26 06:51:39;;;;;;;10.13;1.27;;;22.50;74.70;;;;;;6191540;23;20084;-78
2022/08/26 06:54:08;;;;;;;14.18;1.88;;;22.50;74.70;;;;;;6217683;23;20095;-77
2022/08/26 06:56:41;;;;;;;13.82;2.15;;;22.50;74.60;;;;;;6215177;23;20025;-79
2022/08/26 06:59:08;;;;;;;15.63;1.93;;;22.50;74.70;;;;;;6190511;23;20103;-78
2022/08/26 07:01:38;;;;;;;11.82;1.58;;;22.50;75.00;;;;;;6191296;23;20051;-78
2022/08/26 07:04:05;;;;;;;5.88;1.20;;;22.50;75.00;;;;;;6191190;23;20021;-80
2022/08/26 07:06:37;;;;;;;9.70;1.38;;;22.50;75.10;;;;;;6218629;23;20095;-82
2022/08/26 07:09:04;;;;;;;10.38;1.40;;;22.50;75.00;;;;;;6217866;23;20024;-78
2022/08/26 07:11:34;;;;;;;8.65;1.65;;;22.50;74.90;;;;;;6191558;23;20024;-79
2022/08/26 07:14:00;;;;;;;6.78;1.40;;;22.50;74.60;;;;;;6191734;23;20012;-79
2022/08/26 07:16:26;;;;;;;10.63;1.70;;;22.50;74.50;;;;;;6191948;23;20088;-80
2022/08/26 09:12:13;;;;;;;6.65;1.08;;;22.50;75.90;;;;;;6224437;23;20451;-75
2022/08/26 09:14:39;;;;;;;18.30;1.42;;;22.50;75.80;;;;;;6248402;23;20016;-76
2022/08/26 09:17:15;;;;;;;12.80;1.13;;;22.50;75.50;;;;;;6247857;23;20111;-78
2022/08/26 09:19:48;;;;;;;8.85;1.58;;;22.50;74.50;;;;;;6247516;23;20019;-82
2022/08/26 09:22:34;;;;;;;12.85;2.50;;;22.50;75.30;;;;;;6195988;23;20012;-83
2022/08/26 09:25:00;;;;;;;12.13;2.63;;;22.50;75.10;;;;;;6221451;23;20039;-79
2022/08/26 09:27:39;;;;;;;10.98;4.28;;;22.50;75.60;;;;;;6222812;23;20008;-79
2022/08/26 09:30:07;;;;;;;10.82;4.55;;;22.40;76.60;;;;;;6198009;23;20091;-80
2022/08/26 09:32:34;;;;;;;8.32;2.20;;;22.40;76.30;;;;;;6248533;23;20087;-86
2022/08/26 09:35:06;;;;;;;12.35;2.70;;;22.40;76.00;;;;;;6198298;23;20301;-85
2022/08/26 09:37:31;;;;;;;10.30;2.10;;;22.40;76.10;;;;;;6249556;23;20439;-79
2022/08/26 09:40:29;;;;;;;9.23;1.58;;;22.40;75.90;;;;;;6250090;23;20016;-78
2022/08/26 09:43:15;;;;;;;8.70;1.00;;;22.40;74.50;;;;;;6249407;23;20012;-85
2022/08/26 09:45:47;;;;;;;10.82;1.50;;;22.40;75.40;;;;;;6221737;23;20019;-80
2022/08/26 09:48:29;;;;;;;8.05;1.52;;;22.40;75.30;;;;;;6222295;23;20031;-83
2022/08/26 09:50:58;;;;;;;6.78;1.08;;;22.40;75.20;;;;;;6197971;23;20432;-82
2022/08/26 09:53:27;;;;;;;7.15;1.05;;;22.40;75.00;;;;;;6222463;23;20472;-82
2022/08/26 09:56:22;;;;;;;4.40;1.10;;;22.40;74.80;;;;;;6222577;23;20145;-79
2022/08/26 09:58:49;;;;;;;5.65;0.80;;;22.40;74.40;;;;;;6222933;23;20016;-78
2022/08/26 10:01:40;;;;;;;4.85;0.85;;;22.40;75.00;;;;;;6249373;23;20063;-78
2022/08/26 10:04:21;;;;;;;6.38;0.90;;;22.50;74.70;;;;;;6249893;23;20074;-79
2022/08/26 10:07:01;;;;;;;9.05;1.08;;;22.40;74.50;;;;;;6223299;23;20091;-79
2022/08/26 10:09:31;;;;;;;4.32;0.85;;;22.50;74.90;;;;;;6248425;23;20008;-79
2022/08/26 10:12:07;;;;;;;8.48;0.90;;;22.50;74.90;;;;;;6249495;23;20031;-80
2022/08/26 10:14:35;;;;;;;8.45;1.30;;;22.50;74.80;;;;;;6248974;23;20016;-79
2022/08/26 10:17:20;;;;;;;10.07;1.15;;;22.60;74.90;;;;;;6248672;23;20026;-85
2022/08/26 10:19:55;;;;;;;6.65;0.70;;;22.60;74.90;;;;;;6222256;23;20016;-80
2022/08/26 10:22:41;;;;;;;5.03;1.00;;;22.60;74.90;;;;;;6248744;23;20020;-79
2022/08/26 10:25:13;;;;;;;6.97;1.02;;;22.70;75.30;;;;;;6248439;23;20016;-78
2022/08/26 10:27:45;;;;;;;7.72;1.13;;;22.70;75.40;;;;;;6249029;23;20031;-78
2022/08/26 10:30:14;;;;;;;7.50;1.35;;;22.70;74.80;;;;;;6248825;23;20013;-77
2022/08/26 10:33:09;;;;;;;8.02;0.90;;;22.70;75.30;;;;;;6222442;23;20057;-78
2022/08/26 10:35:49;;;;;;;5.88;0.95;;;22.70;74.60;;;;;;6248191;23;20487;-78
2022/08/26 10:38:21;;;;;;;9.43;1.05;;;22.70;74.60;;;;;;6248569;23;20063;-79
2022/08/26 10:41:06;;;;;;;3.63;0.90;;;22.70;74.60;;;;;;6248561;23;20016;-79
2022/08/26 10:43:40;;;;;;;19.92;2.13;;;22.70;73.60;;;;;;6248837;23;20074;-79
2022/08/26 10:46:15;;;;;;;6.43;1.02;;;22.70;74.20;;;;;;6248832;23;20016;-77
2022/08/26 10:49:01;;;;;;;8.32;0.98;;;22.70;74.20;;;;;;6248613;23;20055;-80
2022/08/26 10:51:35;;;;;;;5.05;0.73;;;22.70;73.60;;;;;;6221987;23;20023;-80
2022/08/26 10:54:13;;;;;;;6.10;1.27;;;22.60;72.20;;;;;;6222446;23;20083;-81
2022/08/26 10:57:08;;;;;;;4.25;0.50;;;22.60;72.40;;;;;;6248483;23;20016;-81
2022/08/26 10:59:46;;;;;;;7.30;0.98;;;22.50;71.60;;;;;;6248042;23;20425;-81
2022/08/26 11:02:20;;;;;;;4.45;0.63;;;22.50;72.60;;;;;;6248336;23;20062;-81
2022/08/26 11:04:59;;;;;;;4.72;0.70;;;22.40;70.90;;;;;;6249142;23;20095;-81
2022/08/26 11:07:35;;;;;;;6.53;1.10;;;22.40;72.00;;;;;;6248603;23;20020;-79
2022/08/26 11:10:15;;;;;;;6.18;0.93;;;22.40;72.80;;;;;;6248090;23;20035;-79
2022/08/26 11:12:41;;;;;;;5.85;0.88;;;22.40;71.20;;;;;;6217034;23;20020;-81
2022/08/26 11:15:29;;;;;;;5.35;1.10;;;22.40;72.40;;;;;;6218148;23;20017;-82
2022/08/26 11:18:00;;;;;;;8.05;0.68;;;22.50;72.10;;;;;;6191252;23;20028;-79
2022/08/26 11:20:39;;;;;;;5.18;0.73;;;22.50;72.40;;;;;;6218277;23;20024;-79
2022/08/26 11:23:22;;;;;;;5.75;0.80;;;22.50;71.60;;;;;;6217479;23;20440;-78
2022/08/26 11:26:13;;;;;;;2.50;0.68;;;22.50;72.30;;;;;;6217956;23;20039;-80
2022/08/26 11:28:47;;;;;;;4.18;0.50;;;22.50;71.20;;;;;;6174222;23;20013;-76
2022/08/26 11:31:25;;;;;;;4.35;0.75;;;22.50;72.10;;;;;;6217789;23;20094;-80
2022/08/26 11:33:52;;;;;;;4.72;0.90;;;22.50;72.20;;;;;;6218156;23;20055;-79
2022/08/26 11:36:38;;;;;;;6.00;0.90;;;22.60;72.10;;;;;;6217906;23;20066;-78
2022/08/26 11:39:13;;;;;;;5.05;0.63;;;22.50;72.10;;;;;;6217723;23;20083;-77
2022/08/26 11:41:48;;;;;;;4.95;0.75;;;22.50;72.20;;;;;;6218025;23;20020;-79
2022/08/26 11:44:22;;;;;;;4.53;0.70;;;22.60;72.50;;;;;;6216856;23;20027;-76
2022/08/26 11:46:59;;;;;;;3.88;0.57;;;22.60;70.90;;;;;;6217871;23;20293;-79
2022/08/26 11:49:27;;;;;;;6.15;1.00;;;22.60;71.70;;;;;;6217369;23;20031;-78
2022/08/26 11:52:16;;;;;;;3.63;0.90;;;22.60;71.90;;;;;;6217650;23;20017;-78
2022/08/26 11:55:06;;;;;;;4.05;1.00;;;22.60;71.50;;;;;;6198841;23;20028;-78
2022/08/26 11:57:34;;;;;;;4.43;0.50;;;22.60;71.10;;;;;;6195926;23;20016;-77
2022/08/26 12:00:01;;;;;;;4.25;0.63;;;22.50;71.60;;;;;;6218154;23;20052;-78
2022/08/26 12:02:27;;;;;;;3.20;0.60;;;22.60;71.20;;;;;;6217113;23;20017;-78
2022/08/26 12:40:42;;;;;;;3.85;0.80;;;22.50;70.00;;;;;;6203093;23;20027;-78
2022/08/26 12:43:10;;;;;;;6.00;0.70;;;22.50;70.20;;;;;;6246182;23;20032;-77
2022/08/26 12:45:41;;;;;;;6.72;1.25;;;22.50;70.30;;;;;;6248431;23;20016;-78
2022/08/26 12:48:07;;;;;;;5.57;0.70;;;22.50;70.00;;;;;;6219567;23;20035;-78
2022/08/26 12:50:36;;;;;;;5.15;0.50;;;22.50;69.90;;;;;;6246701;23;20020;-79
2022/08/26 12:53:08;;;;;;;5.13;0.70;;;22.50;70.10;;;;;;6246698;23;20377;-79
2022/08/26 12:55:53;;;;;;;3.88;0.55;;;22.50;70.00;;;;;;6247870;23;20020;-78
2022/08/26 12:58:31;;;;;;;4.38;0.77;;;22.50;69.50;;;;;;6247459;23;20117;-78
2022/08/26 13:01:03;;;;;;;5.05;0.90;;;22.50;69.40;;;;;;6248765;23;20020;-78
2022/08/26 13:03:44;;;;;;;7.88;1.00;;;22.50;69.60;;;;;;6249681;23;20113;-79
2022/08/26 13:06:29;;;;;;;10.30;0.85;;;22.60;70.10;;;;;;6249106;23;20031;-76
2022/08/26 13:09:02;;;;;;;8.23;1.13;;;22.60;70.10;;;;;;6225045;23;20012;-79
2022/08/26 15:10:49;;;;;;;8.90;1.13;;;22.80;67.60;;;;;;6205996;23;19934;-76
2022/08/26 15:13:15;;;;;;;7.38;0.90;;;22.80;67.40;;;;;;6247106;23;20083;-78
2022/08/26 15:15:40;;;;;;;8.18;1.27;;;22.80;67.70;;;;;;6222439;23;20125;-76
2022/08/26 15:18:06;;;;;;;6.32;1.30;;;22.80;67.60;;;;;;6198158;23;20584;-76
2022/08/26 15:20:32;;;;;;;9.88;1.48;;;22.80;67.80;;;;;;6248615;23;20023;-75
2022/08/26 15:22:58;;;;;;;10.20;1.20;;;22.80;67.80;;;;;;6248283;23;20020;-77
2022/08/26 15:25:23;;;;;;;9.32;1.27;;;22.80;67.90;;;;;;6222072;23;20020;-77
2022/08/26 15:27:49;;;;;;;5.60;1.30;;;22.80;67.90;;;;;;6248456;23;20016;-76
2022/08/26 15:30:17;;;;;;;5.35;0.60;;;22.90;68.00;;;;;;6249195;23;20020;-78
2022/08/26 15:32:43;;;;;;;6.00;0.80;;;22.90;68.00;;;;;;6222040;23;20282;-79
2022/08/26 15:35:08;;;;;;;9.82;1.52;;;22.90;68.00;;;;;;6248381;23;20319;-79
2022/08/26 15:37:34;;;;;;;7.35;1.17;;;22.90;68.10;;;;;;6221994;23;20027;-77
2022/08/26 15:40:00;;;;;;;10.05;1.05;;;22.90;68.00;;;;;;6248794;23;20016;-80
2022/08/26 15:42:26;;;;;;;8.65;1.55;;;22.90;68.20;;;;;;6247573;23;20127;-79
2022/08/26 15:44:51;;;;;;;9.77;1.83;;;23.00;68.30;;;;;;6247969;23;20016;-78
2022/08/26 15:47:18;;;;;;;11.52;1.75;;;22.90;68.50;;;;;;6247994;23;20035;-79
2022/08/26 15:49:44;;;;;;;7.43;1.02;;;23.00;68.50;;;;;;6247672;23;20023;-78
2022/08/26 15:52:09;;;;;;;8.15;1.10;;;22.90;68.60;;;;;;6248128;23;20055;-78
2022/08/26 15:54:35;;;;;;;9.13;1.20;;;23.00;68.50;;;;;;6221496;23;20035;-79
2022/08/26 15:57:02;;;;;;;10.57;1.33;;;23.00;68.40;;;;;;6248173;23;20024;-78
2022/08/26 15:59:31;;;;;;;4.10;1.13;;;23.00;68.30;;;;;;6248115;23;20031;-79
2022/08/26 16:01:59;;;;;;;7.05;1.20;;;23.00;68.30;;;;;;6247782;23;20429;-79
2022/08/26 16:04:25;;;;;;;9.32;1.02;;;23.00;68.20;;;;;;6248206;23;20086;-78
2022/08/26 16:06:52;;;;;;;7.50;0.90;;;23.00;68.40;;;;;;6221679;23;20078;-78
2022/08/26 16:09:25;;;;;;;8.73;1.23;;;23.00;68.50;;;;;;6248108;23;20020;-82
2022/08/26 16:11:53;;;;;;;6.65;1.25;;;23.00;69.00;;;;;;6247520;23;20023;-81
2022/08/26 16:14:20;;;;;;;8.85;1.70;;;23.00;68.50;;;;;;6222013;23;20051;-80
2022/08/26 16:16:46;;;;;;;17.35;2.25;;;23.00;68.40;;;;;;6248420;23;20308;-79
2022/08/26 16:19:12;;;;;;;12.63;1.83;;;23.00;68.30;;;;;;6248051;23;20020;-79
2022/08/26 16:21:38;;;;;;;43.20;4.22;;;23.00;68.50;;;;;;6221392;23;20027;-79
2022/08/26 16:24:04;;;;;;;25.48;2.83;;;23.00;68.70;;;;;;6247487;23;20047;-82
2022/08/26 16:26:32;;;;;;;14.60;1.83;;;23.00;67.80;;;;;;6247664;23;20043;-80
2022/08/26 16:29:04;;;;;;;17.27;1.98;;;23.00;66.70;;;;;;6221151;23;20012;-79
2022/08/26 16:31:29;;;;;;;26.67;2.90;;;22.90;66.30;;;;;;6247826;23;20055;-80
2022/08/26 16:33:55;;;;;;;16.65;2.47;;;22.90;66.50;;;;;;6247825;23;20041;-79
2022/08/26 16:36:21;;;;;;;19.60;2.25;;;22.90;67.00;;;;;;6223645;23;20113;-77
2022/08/26 16:38:52;;;;;;;29.25;3.50;;;22.90;67.50;;;;;;6249792;23;20329;-79
2022/08/26 16:41:18;;;;;;;21.92;3.55;;;22.90;67.60;;;;;;6249911;23;20016;-81
2022/08/26 16:43:44;;;;;;;18.77;2.20;;;22.90;67.60;;;;;;6223224;23;20305;-81
2022/08/26 16:46:14;;;;;;;10.27;1.52;;;22.90;67.30;;;;;;6222983;23;20024;-81
2022/08/26 16:48:42;;;;;;;9.20;2.40;;;22.90;67.00;;;;;;6222922;23;20024;-80
2022/08/26 16:51:12;;;;;;;14.40;2.13;;;23.00;66.80;;;;;;6223304;23;20520;-81
2022/08/26 16:53:38;;;;;;;10.50;1.85;;;22.90;66.70;;;;;;6249594;23;20016;-81
2022/08/26 16:56:04;;;;;;;17.73;2.25;;;22.90;66.80;;;;;;6249858;23;20440;-81
2022/08/26 16:58:30;;;;;;;13.77;1.77;;;22.90;66.60;;;;;;6249847;23;20104;-79
2022/08/26 17:00:56;;;;;;;11.45;2.50;;;22.90;66.60;;;;;;6249540;23;20020;-83
2022/08/26 19:52:33;;;;;;;5.38;1.20;;;21.30;63.80;;;;;;6224105;23;20058;-76
2022/08/26 19:55:01;;;;;;;11.63;1.80;;;21.30;64.00;;;;;;6247921;23;20019;-74
2022/08/26 19:57:26;;;;;;;5.47;1.27;;;21.20;64.10;;;;;;6248202;23;20087;-78
2022/08/26 19:59:52;;;;;;;7.68;1.40;;;21.20;64.20;;;;;;6249097;23;20051;-76
2022/08/26 20:02:18;;;;;;;5.88;1.50;;;21.20;64.30;;;;;;6247907;23;20079;-74
2022/08/26 20:04:44;;;;;;;4.88;1.40;;;21.20;64.30;;;;;;6248173;23;20324;-79
2022/08/26 20:07:11;;;;;;;4.20;1.30;;;21.10;64.50;;;;;;6248190;23;20031;-74
2022/08/26 20:09:37;;;;;;;6.55;1.55;;;21.10;64.60;;;;;;6248185;23;20066;-76
2022/08/26 20:12:04;;;;;;;5.25;1.50;;;21.00;64.50;;;;;;6247804;23;20020;-78
2022/08/26 20:14:32;;;;;;;3.28;1.27;;;21.00;64.50;;;;;;6247816;23;20420;-76
2022/08/26 20:16:58;;;;;;;7.15;1.83;;;21.00;64.70;;;;;;6247462;23;20074;-75
2022/08/26 20:22:12;;;;;;;5.57;1.75;;;20.90;65.00;;;;;;6221938;23;20020;-76
2022/08/26 20:24:38;;;;;;;3.88;1.83;;;20.90;65.20;;;;;;6248090;23;20074;-80
2022/08/26 20:27:05;;;;;;;6.35;1.60;;;20.80;65.20;;;;;;6221454;23;20158;-77
2022/08/26 20:29:32;;;;;;;6.18;1.83;;;20.80;65.50;;;;;;6247474;23;20016;-76
2022/08/26 20:31:57;;;;;;;7.00;1.77;;;20.80;65.40;;;;;;6247581;23;20023;-78
2022/08/26 20:34:25;;;;;;;3.83;1.70;;;20.80;65.30;;;;;;6196011;23;20016;-83
2022/08/26 20:36:51;;;;;;;4.55;1.42;;;20.70;65.20;;;;;;6196774;23;20012;-73
2022/08/26 20:39:19;;;;;;;7.97;2.22;;;20.70;65.30;;;;;;6248041;23;20079;-77
2022/08/26 20:41:46;;;;;;;4.05;1.70;;;20.70;65.50;;;;;;6243348;23;20008;-78
2022/08/26 20:44:16;;;;;;;3.90;1.40;;;20.70;65.50;;;;;;6248970;23;20016;-81
2022/08/26 20:46:42;;;;;;;2.97;1.90;;;20.70;65.40;;;;;;6248472;23;20020;-77
2022/08/26 20:49:09;;;;;;;6.00;1.58;;;20.70;65.30;;;;;;6247522;23;20027;-77
2022/08/26 20:51:37;;;;;;;6.30;1.75;;;20.60;65.30;;;;;;6246191;23;20020;-77
2022/08/26 20:54:08;;;;;;;4.03;1.83;;;20.60;65.30;;;;;;6247447;23;20077;-80
2022/08/26 20:56:34;;;;;;;4.70;1.75;;;20.60;65.30;;;;;;6247497;23;20425;-76
2022/08/26 20:59:00;;;;;;;3.67;1.80;;;20.60;65.30;;;;;;6247982;23;20301;-77
2022/08/26 21:01:32;;;;;;;5.10;1.90;;;20.60;65.10;;;;;;6247807;23;20016;-78
2022/08/26 21:03:59;;;;;;;6.50;2.10;;;20.50;65.30;;;;;;6247813;23;20405;-78
2022/08/26 21:06:25;;;;;;;4.05;1.90;;;20.50;65.30;;;;;;6247117;23;20019;-77
2022/08/26 21:08:51;;;;;;;5.20;1.67;;;20.50;65.50;;;;;;6247652;23;20031;-78
2022/08/26 21:11:17;;;;;;;8.25;1.80;;;20.50;65.40;;;;;;6247854;23;20393;-78
2022/08/26 21:13:44;;;;;;;4.47;1.80;;;20.50;65.30;;;;;;6247673;23;20093;-80
2022/08/26 21:16:11;;;;;;;4.75;2.00;;;20.50;65.20;;;;;;6220846;23;20027;-76
2022/08/26 21:18:37;;;;;;;3.83;1.77;;;20.40;65.20;;;;;;6221111;23;20024;-77
2022/08/26 21:21:05;;;;;;;5.70;2.00;;;20.40;65.40;;;;;;6248463;23;20024;-77
2022/08/26 21:23:31;;;;;;;6.28;2.15;;;20.40;65.50;;;;;;6249586;23;20027;-76
2022/08/26 21:26:01;;;;;;;3.35;1.58;;;20.40;65.70;;;;;;6249765;23;20082;-78
2022/08/26 21:28:27;;;;;;;5.97;2.03;;;20.30;65.70;;;;;;6249366;23;20301;-75
2022/08/26 21:30:53;;;;;;;4.22;1.90;;;20.30;65.70;;;;;;6223160;23;20016;-78
2022/08/26 21:33:18;;;;;;;6.10;2.25;;;20.30;65.90;;;;;;6223105;23;20028;-76
2022/08/26 21:35:51;;;;;;;4.13;1.88;;;20.30;66.00;;;;;;6249397;23;20035;-78
2022/08/26 21:38:17;;;;;;;4.65;1.90;;;20.30;66.10;;;;;;6249429;23;20294;-76
2022/08/26 21:40:43;;;;;;;5.70;1.90;;;20.30;66.30;;;;;;6248980;23;20022;-79
2022/08/26 21:43:09;;;;;;;4.22;1.75;;;20.20;66.10;;;;;;6249286;23;20022;-79
2022/08/26 21:45:43;;;;;;;5.85;2.35;;;20.20;65.90;;;;;;6248946;23;20109;-81
2022/08/26 21:48:09;;;;;;;7.00;1.50;;;20.20;65.90;;;;;;6222850;23;20031;-80
2022/08/26 21:50:38;;;;;;;3.35;2.00;;;20.20;65.90;;;;;;6222813;23;20020;-80
2022/08/26 21:53:04;;;;;;;5.50;1.95;;;20.20;65.90;;;;;;6248732;23;20081;-78
